Simms, Texas
Current Conditions -  °F | °C
As of 11:53 AM on Sunday 21 Dec 2014 (Local Time) from KTXK Reporting Station
Overcast Overcast  
Wind Chill: 47°   Ceiling: 4000
Heat Index: 47°   Visibility: 9mi
Dew Point: 40°   Wind: 3mph
Humidity: 77%   Direction: NA
Pressure: 30.1"   Gusts: NA
Location:  33.35°N, 94.51°W
Report Text: KTXK 211753Z VRB03KT 9SM OVC040 08/04 A3010 RMK AO2 SLP193 T00830044 10083 20022 58018
Loading
Personal Weather Stations






























Interactive Weather Map New forecast layout! Learn more

10-Day Weather Forecast

Advertisements
Track Severe Weather on mobile